logo
Search for airport 
image banner adimage banner adimage banner ad
image banner ad

LSZB - Bern-Belp

Located in Bern, Switzerland

ICAO - LSZB, IATA - BRN

Data provided by Airmate  

General information

Coordinates: N46°54'44" E7°29'58"
Elevation is 1675 feet MSL.
Magnetic variation is 1.865° East
Rated:
View ratings:
[VIEW]
View others Airports in Berne

Operational data

Special qualification required
Current time UTC:
Current local time:
Weather
METAR: LSZB 161950Z AUTO 09002KT 9999 SCT055 SCT065 BKN075 19/15 Q1020
TAF: TAF LSZB 161425Z 1615/1624 30007KT 9999 SCT040
View NOTAMs / SUP AIP / TFR affecting this airport [VIEW]
Communications frequencies: [VIEW]

Runways:

RWY identifierQFULength (ft)Width (ft)SurfaceLDA (ft)
14R140°213398GRASS2133
32L320°213398GRASS2133
14140°567698ASPH5020
32320°567698ASPH5479
16161°170698GRASS
34GLD170698GRASS
34341°00UNK

Airport contact information

Address: Bern Switzerland

Handlers

Alpine Sky Jets Ltd

Alpine Sky Jets Ltd

Bern Airport

Bern Airport
[VIEW][VIEW]
+41319602141

Other aviation service providers

Aviation club (not for profit)

Alp-Air Ben Ag

Alp-Air Ben Ag

Mountain Flyers 80 Ltd

Mountain Flyers 80 Ltd

Segelfluggruppe Bern

Segelfluggruppe Bern

Satellite view of LSZB